createdAt,value
2022-07-25T00:00:14.172Z,3.58
2022-07-25T00:02:43.990Z,3.53
2022-07-25T00:05:12.630Z,3.25
2022-07-25T00:07:40.496Z,3.17
2022-07-25T00:10:09.005Z,3.15
2022-07-25T00:12:37.184Z,3.25
2022-07-25T00:15:05.913Z,3.22
2022-07-25T00:17:33.847Z,3.00
2022-07-25T00:20:02.069Z,3.10
2022-07-25T00:22:32.858Z,3.67
2022-07-25T00:25:00.857Z,3.25
2022-07-25T00:27:28.726Z,3.58
2022-07-25T00:29:56.507Z,3.60
2022-07-25T00:32:24.365Z,3.05
2022-07-25T00:34:52.185Z,2.88
2022-07-25T00:37:20.073Z,3.28
2022-07-25T00:39:48.090Z,3.10
2022-07-25T00:42:16.644Z,3.40
2022-07-25T00:44:44.490Z,3.28
2022-07-25T00:47:12.269Z,3.55
2022-07-25T00:49:40.621Z,3.75
2022-07-25T00:52:08.976Z,3.50
2022-07-25T00:54:36.769Z,3.45
2022-07-25T00:57:04.760Z,3.45
2022-07-25T00:59:32.589Z,3.50
2022-07-25T01:02:03.918Z,3.88
2022-07-25T01:04:32.166Z,3.58
2022-07-25T01:07:00.921Z,3.97
2022-07-25T01:09:28.797Z,3.22
2022-07-25T01:11:56.634Z,3.20
2022-07-25T01:14:24.533Z,3.58
2022-07-25T01:16:52.405Z,3.22
2022-07-25T01:19:20.882Z,3.03
2022-07-25T01:21:48.777Z,3.03
2022-07-25T01:24:16.591Z,2.70
2022-07-25T01:26:44.455Z,3.00
2022-07-25T01:29:12.312Z,2.90
2022-07-25T01:31:40.184Z,2.97
2022-07-25T01:34:08.193Z,3.10
2022-07-25T01:36:36.309Z,3.85
2022-07-25T01:39:07.712Z,3.53
2022-07-25T01:41:35.787Z,3.30
2022-07-25T01:44:04.486Z,3.67
2022-07-25T01:46:32.541Z,2.80
2022-07-25T01:49:00.718Z,2.50
2022-07-25T01:51:28.634Z,3.50
2022-07-25T01:53:56.413Z,3.05
2022-07-25T01:56:24.292Z,2.75
2022-07-25T01:58:52.154Z,2.75
2022-07-25T02:01:22.148Z,2.60
2022-07-25T02:03:50.997Z,2.88
2022-07-25T02:06:19.510Z,3.28
2022-07-25T02:08:47.354Z,3.20
2022-07-25T02:11:15.839Z,2.85
2022-07-25T02:13:44.429Z,2.67
2022-07-25T02:16:12.490Z,2.70
2022-07-25T02:18:40.258Z,2.67
2022-07-25T02:21:14.276Z,3.20
2022-07-25T02:23:43.923Z,2.95
2022-07-25T02:26:12.913Z,2.30
2022-07-25T02:28:41.212Z,2.63
2022-07-25T02:31:09.404Z,2.70
2022-07-25T02:33:37.664Z,3.08
2022-07-25T02:36:05.867Z,2.80
2022-07-25T02:38:33.849Z,2.47
2022-07-25T02:41:01.658Z,2.30
2022-07-25T02:43:29.645Z,2.10
2022-07-25T02:45:57.580Z,2.13
2022-07-25T02:48:25.445Z,2.17
2022-07-25T02:50:53.512Z,1.95
2022-07-25T02:53:46.744Z,2.00
2022-07-25T02:56:09.350Z,2.25
2022-07-25T02:58:37.194Z,2.20
2022-07-25T03:01:10.646Z,2.13
2022-07-25T03:03:38.651Z,2.30
2022-07-25T03:06:07.037Z,2.33
2022-07-25T03:08:34.917Z,2.10
2022-07-25T03:11:02.812Z,2.10
2022-07-25T03:13:31.353Z,2.03
2022-07-25T03:15:59.160Z,2.00
2022-07-25T03:18:27.032Z,2.30
2022-07-25T03:20:55.128Z,1.98
2022-07-25T03:23:25.167Z,2.03
2022-07-25T03:25:54.768Z,2.20
2022-07-25T03:28:22.812Z,2.10
2022-07-25T03:30:51.349Z,1.98
2022-07-25T03:33:19.196Z,1.95
2022-07-25T03:35:47.306Z,1.98
2022-07-25T03:38:15.328Z,2.00
2022-07-25T03:40:43.253Z,2.22
2022-07-25T03:43:11.207Z,2.38
2022-07-25T03:45:39.084Z,1.92
2022-07-25T03:48:07.024Z,1.92
2022-07-25T03:50:35.054Z,2.25
2022-07-25T03:53:03.183Z,2.30
2022-07-25T03:55:31.032Z,2.40
2022-07-25T03:57:58.821Z,2.00
2022-07-25T04:00:26.669Z,2.00
2022-07-25T04:02:55.034Z,2.03
2022-07-25T04:05:25.875Z,1.92
2022-07-25T04:07:53.804Z,2.00
2022-07-25T04:10:21.776Z,2.10
2022-07-25T04:12:49.951Z,2.00
2022-07-25T04:15:17.749Z,2.00
2022-07-25T04:17:45.637Z,2.30
2022-07-25T04:20:13.638Z,1.90
2022-07-25T04:22:46.270Z,1.90
2022-07-25T04:25:14.834Z,2.33
2022-07-25T04:27:42.763Z,1.80
2022-07-25T04:30:23.673Z,2.13
2022-07-25T04:35:20.450Z,1.83
2022-07-25T04:37:48.638Z,1.80
2022-07-25T04:40:16.777Z,1.90
2022-07-25T04:42:44.664Z,2.08
2022-07-25T04:45:17.773Z,2.20
2022-07-25T04:47:46.185Z,2.03
2022-07-25T04:50:14.509Z,2.10
2022-07-25T04:52:42.869Z,2.03
2022-07-25T04:55:11.235Z,2.30
2022-07-25T04:57:39.165Z,2.55
2022-07-25T05:00:10.189Z,2.78
2022-07-25T05:02:38.570Z,2.80
2022-07-25T05:05:07.241Z,2.67
2022-07-25T05:07:38.636Z,3.38
2022-07-25T05:10:06.913Z,3.90
2022-07-25T05:12:34.801Z,2.92
2022-07-25T05:15:06.743Z,3.22
2022-07-25T05:17:34.531Z,2.42
2022-07-25T05:20:02.373Z,2.80
2022-07-25T05:22:31.337Z,2.30
2022-07-25T05:24:59.778Z,2.40
2022-07-25T05:27:27.596Z,2.50
2022-07-25T05:29:55.434Z,2.10
2022-07-25T05:32:23.353Z,2.30
2022-07-25T05:34:52.966Z,2.40
2022-07-25T05:37:20.883Z,2.22
2022-07-25T05:39:48.718Z,2.25
2022-07-25T05:42:16.524Z,2.20
2022-07-25T05:44:44.364Z,1.85
2022-07-25T05:47:12.491Z,1.95
2022-07-25T05:49:40.517Z,1.85
2022-07-25T05:52:12.805Z,1.70
2022-07-25T05:54:41.481Z,1.65
2022-07-25T05:57:11.462Z,1.60
2022-07-25T05:59:39.310Z,1.77
2022-07-25T06:02:07.504Z,1.92
2022-07-25T06:04:35.662Z,1.80
2022-07-25T06:07:03.542Z,2.00
2022-07-25T06:09:34.182Z,1.90
2022-07-25T06:12:02.739Z,2.00
2022-07-25T06:14:30.626Z,1.70
2022-07-25T06:16:58.543Z,1.75
2022-07-25T06:19:26.678Z,1.85
2022-07-25T06:21:54.604Z,1.60
2022-07-25T06:24:22.455Z,1.58
2022-07-25T06:26:50.330Z,1.63
2022-07-25T06:29:18.171Z,1.52
2022-07-25T06:31:47.333Z,1.70
2022-07-25T06:34:15.318Z,1.70
2022-07-25T06:36:43.286Z,1.70
2022-07-25T06:39:11.571Z,1.60
2022-07-25T06:41:39.521Z,1.90
2022-07-25T06:44:07.704Z,1.50
2022-07-25T06:46:35.963Z,1.48
2022-07-25T06:49:04.008Z,1.70
2022-07-25T06:51:31.916Z,1.48
2022-07-25T06:54:00.541Z,1.73
2022-07-25T06:56:31.678Z,1.73
2022-07-25T06:59:00.073Z,1.55
2022-07-25T07:01:28.137Z,1.70
2022-07-25T07:03:56.108Z,1.60
2022-07-25T07:06:24.064Z,1.60
2022-07-25T07:08:52.957Z,1.70
2022-07-25T07:11:20.742Z,1.90
2022-07-25T07:13:48.576Z,1.77
2022-07-25T07:16:16.597Z,1.80
2022-07-25T07:18:48.774Z,1.80
2022-07-25T07:21:21.033Z,1.70
2022-07-25T07:23:53.756Z,1.90
2022-07-25T07:28:49.448Z,1.90
2022-07-25T07:31:18.648Z,1.88
2022-07-25T07:33:46.632Z,2.03
2022-07-25T07:36:14.498Z,1.85
2022-07-25T07:38:42.341Z,2.03
2022-07-25T07:41:10.589Z,1.75
2022-07-25T07:43:38.465Z,1.90
2022-07-25T07:46:06.521Z,1.90
2022-07-25T07:48:34.428Z,1.80
2022-07-25T07:51:04.959Z,1.88
2022-07-25T07:53:51.776Z,2.20
2022-07-25T07:56:19.792Z,1.98
2022-07-25T07:58:47.972Z,1.90
2022-07-25T08:01:17.169Z,1.90
2022-07-25T08:03:45.233Z,1.90
2022-07-25T08:06:13.068Z,2.10
2022-07-25T08:08:42.077Z,2.00
2022-07-25T08:11:09.905Z,2.20
2022-07-25T08:13:40.350Z,1.73
2022-07-25T08:16:08.500Z,1.88
2022-07-25T08:18:36.470Z,1.83
2022-07-25T08:21:06.464Z,1.90
2022-07-25T08:23:35.605Z,1.83
2022-07-25T08:26:04.213Z,2.45
2022-07-25T08:28:32.904Z,1.92
2022-07-25T08:31:00.941Z,1.90
2022-07-25T08:33:29.043Z,2.22
2022-07-25T08:35:58.939Z,2.00
2022-07-25T08:38:28.559Z,1.98
2022-07-25T08:40:59.879Z,1.98
2022-07-25T08:43:33.085Z,2.25
2022-07-25T08:46:02.406Z,2.10
2022-07-25T08:48:30.386Z,1.85
2022-07-25T08:50:58.656Z,1.92
2022-07-25T08:53:34.847Z,1.80
2022-07-25T08:56:12.174Z,2.55
2022-07-25T08:58:44.083Z,2.38
2022-07-25T09:01:13.463Z,2.15
2022-07-25T09:03:43.341Z,2.22
2022-07-25T09:06:22.682Z,2.25
2022-07-25T09:08:52.294Z,2.30
2022-07-25T09:11:27.753Z,2.08
2022-07-25T09:14:03.170Z,2.10
2022-07-25T09:16:35.485Z,2.47
2022-07-25T09:19:12.820Z,2.30
2022-07-25T09:21:42.962Z,2.33
2022-07-25T09:24:16.170Z,2.40
2022-07-25T09:29:31.482Z,2.38
2022-07-25T09:32:00.569Z,2.88
2022-07-25T09:34:36.417Z,2.97
2022-07-25T09:37:05.801Z,2.88
2022-07-25T09:39:46.451Z,3.22
2022-07-25T09:42:24.372Z,3.40
2022-07-25T09:45:03.903Z,3.63
2022-07-25T09:47:35.045Z,3.28
2022-07-25T09:50:06.987Z,3.20
2022-07-25T09:52:36.934Z,2.78
2022-07-25T09:55:06.563Z,3.17
2022-07-25T09:57:34.405Z,3.10
2022-07-25T10:00:03.929Z,2.88
2022-07-25T10:02:39.850Z,3.03
2022-07-25T10:05:35.528Z,2.80
2022-07-25T10:08:07.061Z,3.03
2022-07-25T10:10:40.275Z,2.47
2022-07-25T10:13:31.846Z,2.42
2022-07-25T10:15:59.812Z,2.63
2022-07-25T10:18:29.892Z,2.50
2022-07-25T10:21:25.001Z,2.38
2022-07-25T10:24:02.690Z,2.45
2022-07-25T10:26:31.129Z,2.30
2022-07-25T10:28:59.168Z,2.70
2022-07-25T10:31:33.450Z,2.28
2022-07-25T10:34:06.248Z,2.30
2022-07-25T10:36:51.858Z,2.40
2022-07-25T10:39:21.610Z,2.58
2022-07-25T10:41:55.980Z,2.55
2022-07-25T10:44:24.053Z,2.30
2022-07-25T10:46:52.049Z,2.22
2022-07-25T10:50:13.388Z,2.28
2022-07-25T10:52:31.873Z,2.60
2022-07-25T10:55:01.185Z,2.53
2022-07-25T10:57:31.901Z,2.42
2022-07-25T11:00:07.932Z,2.40
2022-07-25T11:02:36.368Z,2.78
2022-07-25T11:05:05.021Z,2.40
2022-07-25T11:07:37.740Z,2.60
2022-07-25T11:10:06.097Z,2.83
2022-07-25T11:12:34.587Z,2.33
2022-07-25T11:15:04.770Z,2.20
2022-07-25T11:17:34.542Z,2.40
2022-07-25T11:20:04.788Z,2.42
2022-07-25T11:22:34.533Z,2.70
2022-07-25T11:25:09.920Z,2.45
2022-07-25T11:27:39.082Z,2.40
2022-07-25T11:30:20.227Z,2.30
2022-07-25T11:32:51.177Z,2.88
2022-07-25T11:35:22.944Z,2.83
2022-07-25T11:37:51.700Z,2.92
2022-07-25T11:40:21.079Z,2.60
2022-07-25T11:42:53.972Z,2.58
2022-07-25T11:45:30.009Z,2.53
2022-07-25T11:48:07.659Z,2.47
2022-07-25T11:50:37.884Z,2.47
2022-07-25T11:53:11.058Z,2.65
2022-07-25T11:55:43.276Z,2.72
2022-07-25T11:58:13.186Z,2.58
2022-07-25T12:00:44.106Z,2.80
2022-07-25T12:03:19.146Z,2.70
2022-07-25T12:05:48.438Z,2.50
2022-07-25T12:08:18.335Z,2.40
2022-07-25T12:10:48.017Z,2.53
2022-07-25T12:13:29.435Z,2.30
2022-07-25T12:15:58.137Z,2.20
2022-07-25T12:18:50.828Z,2.40
2022-07-25T12:21:18.737Z,2.45
2022-07-25T12:23:46.621Z,2.30
2022-07-25T12:26:14.775Z,2.50
2022-07-25T12:28:42.745Z,2.58
2022-07-25T12:31:10.696Z,2.60
2022-07-25T12:33:38.542Z,2.47
2022-07-25T12:36:08.548Z,2.63
2022-07-25T12:38:37.343Z,2.47
2022-07-25T12:41:05.334Z,2.42
2022-07-25T12:43:33.110Z,2.50
2022-07-25T12:46:01.026Z,2.88
2022-07-25T12:48:28.989Z,2.60
2022-07-25T12:50:56.898Z,2.45
2022-07-25T12:53:25.062Z,2.72
2022-07-25T12:55:53.810Z,2.60
2022-07-25T12:58:21.655Z,2.22
2022-07-25T13:00:49.745Z,2.42
2022-07-25T13:03:18.234Z,2.50
2022-07-25T13:05:46.175Z,2.25
2022-07-25T13:08:14.142Z,2.67
2022-07-25T13:10:42.405Z,2.58
2022-07-25T13:13:39.481Z,2.40
2022-07-25T13:16:35.180Z,2.40
2022-07-25T13:19:07.150Z,2.40
2022-07-25T13:21:36.846Z,2.28
2022-07-25T13:24:05.257Z,2.35
2022-07-25T13:26:38.528Z,2.28
2022-07-25T13:29:12.487Z,2.72
2022-07-25T13:31:42.578Z,2.28
2022-07-25T13:34:10.612Z,2.85
2022-07-25T13:36:40.807Z,2.63
2022-07-25T13:39:09.046Z,3.28
2022-07-25T13:41:37.121Z,2.92
2022-07-25T13:44:05.630Z,3.10
2022-07-25T13:46:36.448Z,2.75
2022-07-25T13:49:04.805Z,2.97
2022-07-25T13:51:33.024Z,2.60
2022-07-25T13:54:00.912Z,2.53
2022-07-25T13:56:28.851Z,2.40
2022-07-25T13:58:56.647Z,2.45
2022-07-25T14:01:26.860Z,2.50
2022-07-25T14:03:55.228Z,2.55
2022-07-25T14:06:23.136Z,2.83
2022-07-25T14:08:51.003Z,2.85
2022-07-25T14:11:19.172Z,3.38
2022-07-25T14:13:47.975Z,2.95
2022-07-25T14:16:19.427Z,2.80
2022-07-25T14:18:50.995Z,3.40
2022-07-25T14:21:19.042Z,2.85
2022-07-25T14:23:47.914Z,2.72
2022-07-25T14:26:15.792Z,2.83
2022-07-25T14:28:43.940Z,2.72
2022-07-25T14:31:13.166Z,2.70
2022-07-25T14:33:43.949Z,2.72
2022-07-25T14:36:13.056Z,2.72
2022-07-25T14:38:40.911Z,3.03
2022-07-25T14:41:12.904Z,2.92
2022-07-25T14:43:41.706Z,2.70
2022-07-25T14:46:10.111Z,2.70
2022-07-25T14:48:40.672Z,2.90
2022-07-25T14:51:08.660Z,2.58
2022-07-25T14:53:37.236Z,2.40
2022-07-25T14:56:06.663Z,3.28
2022-07-25T14:58:34.908Z,2.53
2022-07-25T15:01:02.966Z,2.25
2022-07-25T15:03:31.140Z,2.25
2022-07-25T15:05:59.139Z,2.10
2022-07-25T15:08:27.371Z,2.35
2022-07-25T15:10:56.452Z,2.35
2022-07-25T15:13:32.578Z,2.38
2022-07-25T15:16:01.334Z,2.20
2022-07-25T15:18:42.374Z,2.13
2022-07-25T15:21:20.081Z,2.20
2022-07-25T15:23:47.943Z,2.20
2022-07-25T15:26:15.957Z,2.20
2022-07-25T15:28:44.378Z,2.13
2022-07-25T15:31:12.557Z,2.00
2022-07-25T15:33:40.384Z,2.53
2022-07-25T15:36:08.754Z,2.10
2022-07-25T15:38:36.928Z,1.85
2022-07-25T15:41:05.028Z,2.05
2022-07-25T15:43:33.561Z,2.22
2022-07-25T15:46:01.439Z,2.63
2022-07-25T15:48:29.469Z,3.20
2022-07-25T15:51:06.591Z,2.90
2022-07-25T15:53:34.575Z,3.30
2022-07-25T15:56:02.502Z,2.95
2022-07-25T15:58:30.396Z,3.00
2022-07-25T16:00:58.384Z,3.00
2022-07-25T16:03:29.113Z,3.15
2022-07-25T16:05:57.302Z,3.08
2022-07-25T16:08:25.277Z,2.55
2022-07-25T16:10:53.170Z,2.70
2022-07-25T16:13:23.334Z,2.97
2022-07-25T16:15:51.286Z,2.60
2022-07-25T16:18:19.277Z,2.90
2022-07-25T16:20:47.120Z,2.83
2022-07-25T16:23:15.131Z,2.40
2022-07-25T16:25:43.503Z,2.70
2022-07-25T16:28:11.467Z,2.72
2022-07-25T16:30:39.271Z,2.53
2022-07-25T16:33:07.172Z,3.15
2022-07-25T16:35:35.876Z,3.22
2022-07-25T16:38:03.806Z,3.10
2022-07-25T16:40:33.138Z,3.22
2022-07-25T16:43:03.109Z,3.13
2022-07-25T16:45:31.084Z,3.05
2022-07-25T16:47:58.996Z,2.92
2022-07-25T16:50:26.856Z,3.60
2022-07-25T16:52:55.006Z,3.08
2022-07-25T16:55:23.311Z,3.47
2022-07-25T16:57:51.297Z,3.33
2022-07-25T17:00:22.309Z,3.22
2022-07-25T17:02:51.419Z,3.45
2022-07-25T17:05:20.495Z,3.22
2022-07-25T17:07:49.120Z,3.88
2022-07-25T17:10:17.104Z,3.30
2022-07-25T17:12:45.060Z,3.30
2022-07-25T17:15:14.060Z,3.58
2022-07-25T17:17:42.281Z,3.65
2022-07-25T17:20:10.483Z,4.03
2022-07-25T17:22:39.640Z,3.85
2022-07-25T17:25:09.244Z,3.55
2022-07-25T17:27:38.324Z,3.38
2022-07-25T17:30:06.908Z,3.63
2022-07-25T17:32:34.844Z,2.90
2022-07-25T17:35:02.769Z,3.28
2022-07-25T17:37:31.236Z,3.47
2022-07-25T17:40:00.170Z,2.83
2022-07-25T17:42:28.122Z,2.50
2022-07-25T17:44:56.524Z,2.72
2022-07-25T17:47:24.709Z,4.63
2022-07-25T17:49:52.633Z,8.63
2022-07-25T17:52:20.515Z,6.63
2022-07-25T17:54:48.336Z,6.18
2022-07-25T17:57:16.301Z,7.40
2022-07-25T17:59:46.301Z,5.95
2022-07-25T18:02:15.041Z,6.15
2022-07-25T18:04:42.964Z,4.32
2022-07-25T18:07:11.162Z,4.20
2022-07-25T18:09:39.585Z,4.07
2022-07-25T18:12:09.276Z,3.45
2022-07-25T18:14:37.161Z,3.10
2022-07-25T18:17:06.345Z,3.47
2022-07-25T18:19:35.321Z,3.67
2022-07-25T18:22:04.405Z,3.10
2022-07-25T18:24:32.730Z,3.30
2022-07-25T18:27:00.845Z,3.17
2022-07-25T18:29:28.846Z,4.00
2022-07-25T18:31:56.619Z,3.17
2022-07-25T18:34:24.559Z,3.60
2022-07-25T18:36:52.662Z,3.53
2022-07-25T18:39:21.889Z,3.17
2022-07-25T18:41:49.874Z,3.17
2022-07-25T18:44:19.438Z,2.90
2022-07-25T18:46:47.540Z,2.90
2022-07-25T18:49:15.367Z,2.50
2022-07-25T18:51:43.280Z,2.53
2022-07-25T18:54:12.109Z,2.33
2022-07-25T18:56:39.998Z,2.70
2022-07-25T18:59:08.214Z,2.58
2022-07-25T19:01:37.363Z,2.38
2022-07-25T19:04:05.711Z,2.60
2022-07-25T19:06:33.728Z,2.55
2022-07-25T19:09:04.474Z,2.63
2022-07-25T19:11:37.701Z,2.97
2022-07-25T19:14:10.499Z,2.50
2022-07-25T19:16:41.556Z,2.45
2022-07-25T19:19:11.112Z,2.17
2022-07-25T19:21:38.968Z,2.85
2022-07-25T19:24:07.607Z,2.38
2022-07-25T19:26:35.843Z,2.58
2022-07-25T19:29:06.556Z,2.75
2022-07-25T19:31:35.226Z,2.50
2022-07-25T19:34:03.162Z,2.33
2022-07-25T19:36:32.012Z,2.40
2022-07-25T19:39:01.720Z,2.38
2022-07-25T19:41:31.659Z,2.72
2022-07-25T19:43:59.704Z,2.58
2022-07-25T19:46:31.368Z,2.70
2022-07-25T19:49:04.076Z,2.78
2022-07-25T19:51:33.465Z,3.00
2022-07-25T19:54:03.714Z,3.47
2022-07-25T19:56:31.832Z,3.58
2022-07-25T19:59:01.807Z,3.00
2022-07-25T20:01:30.957Z,2.90
2022-07-25T20:03:58.877Z,3.03
2022-07-25T20:06:27.124Z,2.55
2022-07-25T20:08:55.052Z,2.70
2022-07-25T20:11:22.964Z,2.90
2022-07-25T20:13:50.839Z,2.42
2022-07-25T20:16:18.801Z,3.58
2022-07-25T20:18:47.075Z,2.90
2022-07-25T20:21:17.551Z,3.50
2022-07-25T20:23:45.849Z,2.83
2022-07-25T20:26:14.209Z,2.60
2022-07-25T20:28:42.185Z,3.03
2022-07-25T20:31:10.282Z,3.13
2022-07-25T20:33:38.362Z,3.00
2022-07-25T20:36:06.712Z,3.10
2022-07-25T20:38:34.751Z,2.92
2022-07-25T20:41:02.512Z,2.95
2022-07-25T20:43:31.198Z,3.13
2022-07-25T20:45:59.243Z,2.83
2022-07-25T20:48:27.171Z,2.95
2022-07-25T20:50:55.342Z,3.10
2022-07-25T20:53:23.786Z,3.85
2022-07-25T20:55:52.725Z,3.80
2022-07-25T20:58:21.294Z,3.60
2022-07-25T21:00:49.355Z,3.42
2022-07-25T21:03:17.219Z,3.15
2022-07-25T21:05:45.122Z,3.13
2022-07-25T21:08:15.438Z,3.55
2022-07-25T21:10:44.046Z,3.72
2022-07-25T21:13:11.852Z,3.78
2022-07-25T21:15:39.802Z,3.17
2022-07-25T21:18:07.599Z,3.95
2022-07-25T21:20:37.025Z,3.88
2022-07-25T21:23:05.251Z,3.70
2022-07-25T21:25:33.124Z,4.32
2022-07-25T21:28:00.913Z,4.68
2022-07-25T21:30:28.708Z,3.53
2022-07-25T21:32:57.301Z,3.63
2022-07-25T21:35:26.310Z,3.75
2022-07-25T21:37:54.113Z,3.25
2022-07-25T21:40:22.820Z,3.75
2022-07-25T21:42:50.602Z,4.00
2022-07-25T21:45:18.368Z,4.50
2022-07-25T21:47:46.222Z,3.97
2022-07-25T21:50:32.447Z,4.72
2022-07-25T21:53:00.490Z,4.75
2022-07-25T21:55:28.323Z,3.75
2022-07-25T21:57:56.100Z,3.50
2022-07-25T22:00:24.052Z,4.45
2022-07-25T22:02:52.456Z,3.92
2022-07-25T22:05:20.331Z,3.95
2022-07-25T22:07:48.806Z,3.88
2022-07-25T22:10:18.577Z,4.00
2022-07-25T22:12:46.580Z,4.05
2022-07-25T22:15:14.717Z,4.50
2022-07-25T22:17:48.470Z,4.82
2022-07-25T22:20:20.996Z,4.45
2022-07-25T22:22:49.258Z,4.45
2022-07-25T22:25:17.646Z,3.97
2022-07-25T22:27:45.564Z,4.20
2022-07-25T22:30:18.663Z,3.80
2022-07-25T22:32:48.691Z,4.20
2022-07-25T22:35:20.146Z,4.22
2022-07-25T22:37:48.089Z,3.70
2022-07-25T22:40:16.075Z,4.30
2022-07-25T22:42:43.902Z,3.97
2022-07-25T22:45:11.708Z,4.15
2022-07-25T22:47:40.392Z,4.28
2022-07-25T22:50:10.060Z,3.22
2022-07-25T22:52:37.844Z,3.70
2022-07-25T22:55:06.127Z,4.25
2022-07-25T22:57:37.262Z,4.72
2022-07-25T23:00:08.032Z,4.10
2022-07-25T23:02:36.864Z,3.33
2022-07-25T23:05:07.430Z,3.58
2022-07-25T23:07:35.425Z,4.20
2022-07-25T23:10:04.199Z,3.78
2022-07-25T23:12:32.199Z,3.70
2022-07-25T23:15:00.860Z,3.65
2022-07-25T23:17:29.127Z,3.28
2022-07-25T23:19:57.145Z,3.40
2022-07-25T23:22:26.440Z,3.88
2022-07-25T23:24:55.511Z,3.28
2022-07-25T23:27:23.910Z,3.30
2022-07-25T23:29:52.332Z,3.80
2022-07-25T23:32:20.288Z,3.83
2022-07-25T23:34:48.981Z,3.85
2022-07-25T23:37:16.872Z,4.38
2022-07-25T23:39:44.645Z,4.25
2022-07-25T23:42:12.493Z,4.22
2022-07-25T23:44:42.287Z,4.20
2022-07-25T23:47:12.503Z,4.22
2022-07-25T23:49:41.260Z,4.38
2022-07-25T23:52:09.030Z,4.18
2022-07-25T23:54:38.379Z,4.75
2022-07-25T23:57:07.279Z,3.75
2022-07-25T23:59:35.790Z,4.18
